Time;durP1;ratioP1;P1;durP2;ratioP2;P2;SDS_P1;SDS_P2;PMS_P1;PMS_P2;Temp;Humidity;BMP_temperature;BMP_pressure;BME280_temperature;BME280_humidity;BME280_pressure;Samples;Min_cycle;Max_cycle;Signal;HPM_P1;HPM_P2
2021/10/18 00:01:18;;;;;;;85.90;24.70;;;;;;;;;;5062588;28;20453;-96
2021/10/18 00:03:44;;;;;;;88.83;24.87;;;;;;;;;;5061579;28;20685;-96
2021/10/18 00:06:12;;;;;;;88.20;25.37;;;;;;;;;;5061410;28;20456;-96
2021/10/18 00:08:39;;;;;;;87.57;25.37;;;;;;;;;;5064994;28;20463;-96
2021/10/18 00:11:06;;;;;;;89.93;26.37;;;;;;;;;;5081911;28;20451;-96
2021/10/18 00:13:33;;;;;;;95.20;25.63;;;;;;;;;;5082162;28;20468;-96
2021/10/18 00:15:59;;;;;;;88.83;25.13;;;;;;;;;;5081428;28;20868;-95
2021/10/18 00:18:26;;;;;;;91.30;26.83;;;;;;;;;;5081497;28;20455;-95
2021/10/18 00:20:52;;;;;;;91.00;28.10;;;;;;;;;;5080047;28;20441;-95
2021/10/18 00:23:20;;;;;;;89.97;25.70;;;;;;;;;;5081520;28;20444;-95
2021/10/18 00:25:47;;;;;;;90.07;26.20;;;;;;;;;;5075941;28;20449;-95
2021/10/18 00:28:14;;;;;;;92.27;29.20;;;;;;;;;;5060588;28;20792;-96
2021/10/18 00:30:40;;;;;;;94.00;29.63;;;;;;;;;;5067325;28;20484;-96
2021/10/18 00:33:07;;;;;;;96.80;29.47;;;;;;;;;;5083794;28;20447;-96
2021/10/18 00:35:33;;;;;;;88.67;27.10;;;;;;;;;;5083049;28;20495;-96
2021/10/18 00:38:00;;;;;;;90.47;27.40;;;;;;;;;;5084900;28;20451;-96
2021/10/18 00:40:28;;;;;;;90.47;27.27;;;;;;;;;;5083548;28;20481;-96
2021/10/18 00:42:55;;;;;;;90.50;26.43;;;;;;;;;;5065880;28;20517;-96
2021/10/18 00:45:22;;;;;;;92.10;28.10;;;;;;;;;;5066253;28;20547;-96
2021/10/18 00:47:48;;;;;;;97.73;26.30;;;;;;;;;;5085233;28;20473;-96
2021/10/18 00:50:15;;;;;;;87.50;26.33;;;;;;;;;;5085530;28;20494;-96
2021/10/18 00:52:41;;;;;;;90.90;26.10;;;;;;;;;;5066027;28;20448;-96
2021/10/18 00:55:08;;;;;;;90.07;26.10;;;;;;;;;;5081190;28;20492;-96
2021/10/18 00:57:37;;;;;;;87.87;26.20;;;;;;;;;;5066616;28;20445;-96
2021/10/18 01:00:04;;;;;;;94.70;27.57;;;;;;;;;;5064446;28;20481;-96
2021/10/18 01:02:30;;;;;;;87.17;24.70;;;;;;;;;;5047363;28;20454;-96
2021/10/18 01:04:57;;;;;;;92.60;25.97;;;;;;;;;;5065616;28;20460;-96
2021/10/18 01:07:24;;;;;;;88.10;26.07;;;;;;;;;;5065266;28;20447;-96
2021/10/18 01:09:50;;;;;;;85.00;25.17;;;;;;;;;;5077686;28;20451;-94
2021/10/18 01:12:17;;;;;;;83.73;24.20;;;;;;;;;;5069237;28;20453;-95
2021/10/18 01:14:45;;;;;;;87.37;25.10;;;;;;;;;;5065009;28;20506;-95
2021/10/18 01:17:11;;;;;;;89.70;26.87;;;;;;;;;;5065055;28;20446;-94
2021/10/18 01:19:38;;;;;;;92.60;27.33;;;;;;;;;;5064618;28;20560;-95
2021/10/18 01:22:06;;;;;;;87.30;25.27;;;;;;;;;;5064301;28;20495;-95
2021/10/18 01:24:33;;;;;;;88.17;25.80;;;;;;;;;;5074333;28;20639;-96
2021/10/18 01:27:00;;;;;;;90.30;25.20;;;;;;;;;;5071526;28;20479;-96
2021/10/18 01:29:29;;;;;;;98.27;26.47;;;;;;;;;;5061903;28;20456;-95
2021/10/18 01:31:56;;;;;;;93.03;25.90;;;;;;;;;;5061849;28;20504;-95
2021/10/18 01:34:22;;;;;;;90.80;27.30;;;;;;;;;;5063152;28;20476;-95
2021/10/18 01:36:49;;;;;;;89.40;25.87;;;;;;;;;;5062993;28;20485;-96
2021/10/18 01:39:17;;;;;;;89.43;24.90;;;;;;;;;;5070222;28;20503;-96
2021/10/18 01:41:44;;;;;;;89.90;25.77;;;;;;;;;;5081678;28;20521;-96
2021/10/18 01:44:10;;;;;;;87.67;26.80;;;;;;;;;;5084974;28;20492;-96
2021/10/18 01:46:37;;;;;;;96.67;26.40;;;;;;;;;;5077059;28;20467;-95
2021/10/18 01:49:03;;;;;;;90.50;26.83;;;;;;;;;;5063303;28;20445;-96
2021/10/18 01:51:30;;;;;;;95.20;25.90;;;;;;;;;;5069785;28;20441;-96
2021/10/18 01:53:56;;;;;;;93.53;25.00;;;;;;;;;;5081640;28;20452;-96
2021/10/18 01:56:24;;;;;;;87.67;26.07;;;;;;;;;;5075610;28;20842;-95
2021/10/18 01:58:51;;;;;;;86.40;25.07;;;;;;;;;;5063494;28;20453;-96
2021/10/18 02:01:17;;;;;;;87.70;25.67;;;;;;;;;;5063117;28;20465;-95
2021/10/18 02:03:44;;;;;;;86.70;23.70;;;;;;;;;;5062984;28;20502;-96
2021/10/18 02:06:11;;;;;;;88.67;24.80;;;;;;;;;;5062491;28;20482;-96
2021/10/18 02:08:37;;;;;;;80.50;22.57;;;;;;;;;;5066736;28;20455;-96
2021/10/18 02:11:04;;;;;;;85.37;24.77;;;;;;;;;;5081453;28;20448;-96
2021/10/18 02:13:32;;;;;;;87.83;23.70;;;;;;;;;;5064176;28;20457;-96
2021/10/18 02:15:59;;;;;;;86.40;24.57;;;;;;;;;;5063374;28;20493;-95
2021/10/18 02:18:26;;;;;;;85.87;24.67;;;;;;;;;;5063548;28;20504;-96
2021/10/18 02:20:59;;;;;;;82.47;23.53;;;;;;;;;;5063197;28;20520;-96
2021/10/18 02:23:25;;;;;;;84.20;24.30;;;;;;;;;;5064834;28;20444;-96
2021/10/18 02:25:52;;;;;;;85.73;24.33;;;;;;;;;;5083307;28;20474;-96
2021/10/18 02:28:18;;;;;;;85.10;24.43;;;;;;;;;;5083079;28;21078;-96
2021/10/18 02:30:46;;;;;;;89.70;26.77;;;;;;;;;;5084730;28;20475;-96
2021/10/18 02:33:13;;;;;;;90.63;25.77;;;;;;;;;;5065460;28;20449;-96
2021/10/18 02:35:40;;;;;;;86.20;25.23;;;;;;;;;;5063035;28;20538;-95
2021/10/18 02:38:06;;;;;;;85.63;25.20;;;;;;;;;;5080315;28;20450;-96
2021/10/18 02:40:33;;;;;;;86.50;23.33;;;;;;;;;;5081917;28;20451;-95
2021/10/18 02:42:59;;;;;;;88.70;25.77;;;;;;;;;;5081905;28;20497;-94
2021/10/18 02:45:26;;;;;;;88.87;25.80;;;;;;;;;;5082851;28;20445;-96
2021/10/18 02:47:54;;;;;;;87.00;26.60;;;;;;;;;;5082481;28;20444;-96
2021/10/18 02:50:21;;;;;;;89.73;25.60;;;;;;;;;;5082444;28;20510;-96
2021/10/18 02:52:47;;;;;;;86.10;24.43;;;;;;;;;;5081933;28;20456;-95
2021/10/18 02:55:14;;;;;;;87.63;24.20;;;;;;;;;;5082182;28;20557;-96
2021/10/18 02:57:40;;;;;;;89.10;24.67;;;;;;;;;;5069944;28;20464;-95
2021/10/18 03:00:07;;;;;;;87.07;25.73;;;;;;;;;;5062844;28;20604;-95
2021/10/18 03:02:34;;;;;;;87.20;24.73;;;;;;;;;;5075465;28;20494;-95
2021/10/18 03:05:02;;;;;;;85.70;24.67;;;;;;;;;;5082396;28;21009;-96
2021/10/18 03:07:28;;;;;;;88.77;26.17;;;;;;;;;;5072115;28;20507;-96
2021/10/18 03:09:55;;;;;;;87.57;24.83;;;;;;;;;;5076837;28;20451;-95
2021/10/18 03:12:21;;;;;;;92.40;26.60;;;;;;;;;;5073916;28;20440;-96
2021/10/18 03:14:48;;;;;;;89.00;25.37;;;;;;;;;;5062006;28;20461;-96
2021/10/18 03:17:15;;;;;;;94.50;26.20;;;;;;;;;;5061589;28;20628;-96
2021/10/18 03:19:41;;;;;;;88.20;25.80;;;;;;;;;;5062485;28;20839;-96
2021/10/18 03:22:09;;;;;;;104.90;26.10;;;;;;;;;;5069547;28;20448;-96
2021/10/18 03:24:36;;;;;;;91.83;25.50;;;;;;;;;;5081258;28;20478;-96
2021/10/18 03:27:02;;;;;;;85.77;24.27;;;;;;;;;;5082658;28;20437;-96
2021/10/18 03:29:29;;;;;;;90.50;26.90;;;;;;;;;;5082941;28;20452;-96
2021/10/18 03:31:55;;;;;;;88.50;26.33;;;;;;;;;;5082571;28;21000;-95
2021/10/18 03:34:22;;;;;;;92.80;27.60;;;;;;;;;;5082764;28;20447;-96
2021/10/18 03:36:48;;;;;;;91.13;26.07;;;;;;;;;;5079576;28;20531;-96
2021/10/18 03:39:16;;;;;;;91.57;25.80;;;;;;;;;;5071012;28;20455;-95
2021/10/18 03:41:43;;;;;;;91.57;27.97;;;;;;;;;;5082474;28;20472;-96
2021/10/18 03:44:09;;;;;;;90.97;27.10;;;;;;;;;;5082910;28;20481;-96
2021/10/18 03:46:36;;;;;;;88.60;26.80;;;;;;;;;;5081281;28;20446;-96
2021/10/18 03:49:02;;;;;;;90.17;26.33;;;;;;;;;;5062142;28;20450;-95
2021/10/18 03:51:29;;;;;;;91.47;27.97;;;;;;;;;;5061802;28;20461;-96
2021/10/18 03:53:56;;;;;;;97.13;26.70;;;;;;;;;;5067743;28;20468;-96
2021/10/18 03:56:24;;;;;;;87.87;26.90;;;;;;;;;;5081477;28;20495;-96
2021/10/18 03:58:50;;;;;;;91.90;28.77;;;;;;;;;;5082985;28;20456;-96
2021/10/18 04:01:17;;;;;;;91.90;27.60;;;;;;;;;;5082717;28;20476;-96
2021/10/18 04:03:44;;;;;;;90.20;28.00;;;;;;;;;;5064695;28;20452;-96
2021/10/18 04:06:10;;;;;;;87.60;26.20;;;;;;;;;;5064713;28;20461;-96
2021/10/18 04:08:37;;;;;;;90.10;27.30;;;;;;;;;;5069175;28;20473;-96
2021/10/18 04:11:04;;;;;;;91.20;27.43;;;;;;;;;;5087323;28;20457;-96
2021/10/18 04:13:32;;;;;;;89.27;27.80;;;;;;;;;;5087086;28;20467;-96
2021/10/18 04:15:58;;;;;;;94.90;29.27;;;;;;;;;;5086413;28;20495;-96
2021/10/18 04:18:25;;;;;;;90.67;27.93;;;;;;;;;;5071435;28;20795;-96
2021/10/18 04:20:52;;;;;;;87.80;26.83;;;;;;;;;;5065436;28;20456;-96
2021/10/18 04:23:18;;;;;;;90.60;27.30;;;;;;;;;;5065901;28;20456;-96
2021/10/18 04:25:45;;;;;;;88.93;27.17;;;;;;;;;;5085662;28;20483;-95
2021/10/18 04:28:11;;;;;;;92.23;27.60;;;;;;;;;;5074563;28;20446;-96
2021/10/18 04:30:41;;;;;;;89.77;28.47;;;;;;;;;;5048239;28;20741;-96
2021/10/18 04:33:07;;;;;;;89.67;27.30;;;;;;;;;;5075994;28;20450;-96
2021/10/18 04:35:34;;;;;;;91.73;28.17;;;;;;;;;;5082546;28;21033;-96
2021/10/18 04:38:00;;;;;;;91.90;27.50;;;;;;;;;;5084337;28;20498;-96
2021/10/18 04:40:27;;;;;;;87.10;26.37;;;;;;;;;;5085682;28;20444;-96
2021/10/18 04:42:53;;;;;;;93.10;28.10;;;;;;;;;;5085107;28;20467;-96
2021/10/18 04:45:20;;;;;;;86.90;25.80;;;;;;;;;;5085584;28;20442;-95
2021/10/18 04:47:50;;;;;;;91.07;27.43;;;;;;;;;;5084977;28;20461;-95
2021/10/18 04:50:17;;;;;;;88.30;27.07;;;;;;;;;;5083982;28;21129;-96
2021/10/18 04:52:43;;;;;;;97.97;30.00;;;;;;;;;;5083198;28;20443;-95
2021/10/18 04:55:10;;;;;;;93.93;30.60;;;;;;;;;;5082314;28;20484;-96
2021/10/18 04:57:48;;;;;;;97.30;31.20;;;;;;;;;;5078284;28;20542;-96
2021/10/18 05:00:15;;;;;;;88.47;27.50;;;;;;;;;;5067414;28;20453;-96
2021/10/18 05:02:42;;;;;;;94.00;28.80;;;;;;;;;;5066412;28;20456;-96
2021/10/18 05:05:11;;;;;;;101.90;29.93;;;;;;;;;;5050494;28;20468;-96
2021/10/18 05:07:38;;;;;;;90.00;29.77;;;;;;;;;;5073909;28;20455;-96
2021/10/18 05:10:05;;;;;;;95.10;28.70;;;;;;;;;;5087289;28;20447;-96
2021/10/18 05:12:31;;;;;;;97.97;31.60;;;;;;;;;;5086658;28;20450;-96
2021/10/18 05:14:58;;;;;;;90.10;28.40;;;;;;;;;;5086147;28;20442;-96
2021/10/18 05:17:24;;;;;;;91.53;28.27;;;;;;;;;;5083785;28;20494;-96
2021/10/18 05:19:51;;;;;;;93.30;28.87;;;;;;;;;;5082970;28;20448;-96
2021/10/18 05:22:19;;;;;;;97.97;29.20;;;;;;;;;;5083140;28;20442;-96
2021/10/18 05:24:45;;;;;;;96.47;29.97;;;;;;;;;;5077602;28;20446;-95
2021/10/18 05:27:12;;;;;;;94.10;27.50;;;;;;;;;;5079594;28;20451;-96
2021/10/18 05:29:38;;;;;;;94.90;29.70;;;;;;;;;;5061715;28;20446;-96
2021/10/18 05:32:05;;;;;;;92.20;27.93;;;;;;;;;;5063871;28;21028;-96
2021/10/18 05:34:32;;;;;;;96.30;30.27;;;;;;;;;;5062973;28;20456;-96
2021/10/18 05:36:58;;;;;;;95.77;29.87;;;;;;;;;;5062574;28;20500;-93
2021/10/18 05:39:26;;;;;;;92.07;29.97;;;;;;;;;;5069042;28;20442;-94
2021/10/18 05:41:53;;;;;;;89.03;26.47;;;;;;;;;;5076849;28;20474;-94
2021/10/18 05:44:21;;;;;;;96.10;29.87;;;;;;;;;;5082414;28;20449;-94
2021/10/18 05:46:47;;;;;;;97.47;29.67;;;;;;;;;;5082282;28;20451;-93
2021/10/18 05:49:13;;;;;;;93.47;30.27;;;;;;;;;;5080573;28;20448;-94
2021/10/18 05:51:40;;;;;;;95.60;30.23;;;;;;;;;;5082768;28;20838;-94
2021/10/18 05:54:07;;;;;;;96.37;32.10;;;;;;;;;;5083627;28;20502;-94
2021/10/18 05:56:35;;;;;;;97.00;32.43;;;;;;;;;;5083363;28;20501;-96
2021/10/18 05:59:02;;;;;;;103.67;35.60;;;;;;;;;;5067761;28;20442;-96
2021/10/18 06:01:29;;;;;;;102.17;35.20;;;;;;;;;;5080372;28;20455;-96
2021/10/18 06:03:55;;;;;;;104.47;34.03;;;;;;;;;;5069553;28;20474;-95
2021/10/18 06:06:22;;;;;;;102.50;33.83;;;;;;;;;;5074648;28;20960;-96
2021/10/18 06:08:49;;;;;;;103.27;33.37;;;;;;;;;;5066693;28;20461;-95
2021/10/18 06:11:16;;;;;;;98.20;33.33;;;;;;;;;;5060347;28;20446;-95
2021/10/18 06:13:44;;;;;;;100.10;33.93;;;;;;;;;;5074927;28;20457;-95
2021/10/18 06:16:11;;;;;;;100.37;34.33;;;;;;;;;;5080188;28;20472;-95
2021/10/18 06:18:37;;;;;;;107.63;36.63;;;;;;;;;;5081164;28;20495;-95
2021/10/18 06:21:04;;;;;;;103.57;34.03;;;;;;;;;;5080330;28;20486;-96
2021/10/18 06:23:30;;;;;;;99.80;32.57;;;;;;;;;;5079010;28;20450;-95
2021/10/18 06:25:57;;;;;;;97.37;32.23;;;;;;;;;;5082883;28;20449;-95
2021/10/18 06:28:23;;;;;;;98.40;33.67;;;;;;;;;;5075066;28;20454;-94
2021/10/18 06:30:51;;;;;;;97.33;32.43;;;;;;;;;;5061679;28;20481;-95
2021/10/18 06:33:19;;;;;;;96.07;31.50;;;;;;;;;;5063487;28;20472;-94
2021/10/18 06:35:46;;;;;;;92.80;30.60;;;;;;;;;;5062896;28;20468;-96
2021/10/18 06:38:13;;;;;;;100.77;32.40;;;;;;;;;;5064540;28;20493;-96
2021/10/18 06:40:39;;;;;;;95.07;30.87;;;;;;;;;;5082363;28;20445;-95
2021/10/18 06:43:06;;;;;;;101.00;33.60;;;;;;;;;;5082974;28;20442;-95
2021/10/18 06:45:33;;;;;;;100.50;32.07;;;;;;;;;;5082731;28;20676;-96
2021/10/18 06:48:01;;;;;;;95.30;31.73;;;;;;;;;;5076989;28;22353;-96
2021/10/18 06:50:29;;;;;;;97.57;31.80;;;;;;;;;;5072853;28;20546;-96
2021/10/18 06:52:56;;;;;;;99.43;30.77;;;;;;;;;;5081790;28;20472;-96
2021/10/18 06:55:26;;;;;;;95.93;30.40;;;;;;;;;;5073995;28;20443;-95
2021/10/18 06:57:52;;;;;;;98.60;31.03;;;;;;;;;;5072847;28;20512;-96
2021/10/18 07:00:19;;;;;;;98.37;31.60;;;;;;;;;;5076782;28;20445;-96
2021/10/18 07:02:45;;;;;;;95.53;30.80;;;;;;;;;;5080874;28;20851;-96
2021/10/18 07:05:13;;;;;;;92.17;31.23;;;;;;;;;;5081343;28;20460;-96
2021/10/18 07:07:40;;;;;;;96.93;32.40;;;;;;;;;;5083023;28;20445;-96
2021/10/18 07:10:07;;;;;;;91.97;29.33;;;;;;;;;;5085465;28;20445;-95
2021/10/18 07:12:35;;;;;;;91.70;29.43;;;;;;;;;;5084529;28;20956;-95
2021/10/18 07:15:01;;;;;;;97.57;29.50;;;;;;;;;;5084171;28;20445;-95
2021/10/18 07:17:28;;;;;;;98.10;27.87;;;;;;;;;;5085383;28;20496;-96
2021/10/18 07:19:55;;;;;;;91.77;27.27;;;;;;;;;;5086209;28;20441;-96
2021/10/18 07:22:25;;;;;;;88.53;26.03;;;;;;;;;;5086206;28;20449;-96
2021/10/18 07:24:52;;;;;;;92.20;27.00;;;;;;;;;;5082465;28;20452;-96
2021/10/18 07:27:19;;;;;;;89.27;27.13;;;;;;;;;;5084803;28;20445;-96
2021/10/18 07:29:46;;;;;;;89.17;27.53;;;;;;;;;;5066486;28;20446;-94
2021/10/18 07:32:12;;;;;;;91.80;26.90;;;;;;;;;;5061513;28;20477;-96
2021/10/18 07:34:39;;;;;;;93.70;27.87;;;;;;;;;;5062320;28;20449;-95
2021/10/18 07:37:07;;;;;;;92.57;28.20;;;;;;;;;;5060247;28;20493;-96
2021/10/18 07:39:36;;;;;;;95.00;29.73;;;;;;;;;;5076836;28;20445;-96
2021/10/18 07:42:04;;;;;;;88.40;27.00;;;;;;;;;;5089838;28;20479;-96
2021/10/18 07:44:31;;;;;;;92.20;27.93;;;;;;;;;;5087487;28;20975;-96
2021/10/18 07:46:59;;;;;;;93.90;28.93;;;;;;;;;;5087859;28;20816;-96
2021/10/18 07:49:27;;;;;;;98.30;29.50;;;;;;;;;;5070785;28;20433;-96
2021/10/18 07:51:54;;;;;;;92.00;28.93;;;;;;;;;;5090506;28;20960;-96
2021/10/18 07:54:21;;;;;;;95.73;29.00;;;;;;;;;;5087119;28;20449;-96
2021/10/18 07:56:49;;;;;;;91.80;27.70;;;;;;;;;;5086994;28;20477;-96
2021/10/18 07:59:22;;;;;;;94.50;29.60;;;;;;;;;;5087020;28;20427;-96
2021/10/18 08:01:48;;;;;;;95.80;28.87;;;;;;;;;;5079881;28;20464;-95
2021/10/18 08:04:15;;;;;;;100.30;30.27;;;;;;;;;;5083084;28;20441;-95
2021/10/18 08:06:41;;;;;;;96.40;29.70;;;;;;;;;;5082766;28;20445;-95
2021/10/18 08:09:09;;;;;;;98.10;30.43;;;;;;;;;;5083544;28;20456;-96
2021/10/18 08:11:36;;;;;;;91.27;29.83;;;;;;;;;;5083451;28;20460;-95
2021/10/18 08:14:05;;;;;;;91.50;28.00;;;;;;;;;;5082792;28;20444;-96
2021/10/18 08:16:31;;;;;;;95.93;27.97;;;;;;;;;;5084414;28;20449;-95
2021/10/18 08:18:58;;;;;;;97.47;27.90;;;;;;;;;;5086279;28;20475;-95
2021/10/18 08:21:24;;;;;;;94.90;28.77;;;;;;;;;;5086839;28;20483;-96
2021/10/18 08:23:51;;;;;;;94.83;30.03;;;;;;;;;;5087877;28;20445;-96
2021/10/18 08:26:18;;;;;;;94.70;30.17;;;;;;;;;;5087364;28;20456;-95
2021/10/18 08:28:44;;;;;;;99.80;27.93;;;;;;;;;;5084198;28;20445;-94
2021/10/18 08:31:12;;;;;;;93.00;29.43;;;;;;;;;;5065404;28;20477;-94
2021/10/18 08:33:39;;;;;;;94.70;29.30;;;;;;;;;;5065758;28;20480;-95
2021/10/18 08:36:05;;;;;;;95.57;30.80;;;;;;;;;;5064715;28;20446;-95
2021/10/18 08:41:22;;;;;;;94.20;30.30;;;;;;;;;;5080234;28;20476;-95
2021/10/18 08:46:34;;;;;;;100.87;30.53;;;;;;;;;;5085250;28;20487;-96
2021/10/18 08:49:00;;;;;;;99.80;31.27;;;;;;;;;;5080231;28;20484;-94
2021/10/18 08:51:29;;;;;;;97.23;30.80;;;;;;;;;;5083283;28;20445;-96
2021/10/18 08:53:55;;;;;;;96.90;30.70;;;;;;;;;;5081808;28;20458;-94
2021/10/18 08:56:22;;;;;;;98.87;32.40;;;;;;;;;;5063920;28;20457;-95
2021/10/18 08:58:50;;;;;;;102.67;32.87;;;;;;;;;;5066203;28;20512;-96
2021/10/18 09:01:17;;;;;;;96.57;28.83;;;;;;;;;;5067509;28;20442;-96
2021/10/18 09:03:45;;;;;;;93.70;30.67;;;;;;;;;;5080840;28;20445;-96
2021/10/18 09:06:13;;;;;;;94.90;29.53;;;;;;;;;;5083484;28;20445;-95
2021/10/18 09:08:40;;;;;;;95.23;30.17;;;;;;;;;;5071135;28;20451;-95
2021/10/18 09:13:58;;;;;;;94.90;30.30;;;;;;;;;;5087800;28;20461;-95
2021/10/18 09:16:25;;;;;;;96.63;29.50;;;;;;;;;;5085952;28;20457;-95
2021/10/18 09:19:01;;;;;;;94.57;29.73;;;;;;;;;;5088016;28;20492;-96
2021/10/18 09:21:28;;;;;;;92.80;29.50;;;;;;;;;;5064450;28;20449;-95
2021/10/18 09:23:55;;;;;;;101.60;28.63;;;;;;;;;;5069208;28;20465;-95
2021/10/18 09:26:23;;;;;;;93.77;28.80;;;;;;;;;;5063916;28;20447;-93
2021/10/18 09:28:52;;;;;;;92.77;29.17;;;;;;;;;;5063667;28;20496;-93
2021/10/18 09:31:19;;;;;;;93.80;29.43;;;;;;;;;;5062430;28;20478;-95
2021/10/18 09:33:49;;;;;;;95.53;29.03;;;;;;;;;;5064467;28;20453;-95
2021/10/18 09:36:21;;;;;;;90.53;28.30;;;;;;;;;;5044391;28;20440;-95
2021/10/18 09:38:48;;;;;;;90.87;27.30;;;;;;;;;;5048303;28;20498;-94
2021/10/18 09:41:23;;;;;;;94.00;29.37;;;;;;;;;;5063877;28;20460;-95
2021/10/18 09:43:57;;;;;;;90.67;29.40;;;;;;;;;;5062186;28;20453;-94
2021/10/18 09:46:30;;;;;;;90.87;28.90;;;;;;;;;;5061738;28;21832;-94
2021/10/18 10:53:11;;;;;;;81.40;23.70;;;;;;;;;;5080637;28;20440;-94
2021/10/18 10:55:38;;;;;;;86.97;25.17;;;;;;;;;;5083404;28;20454;-96
2021/10/18 10:58:26;;;;;;;85.37;23.37;;;;;;;;;;5085365;28;20492;-96
2021/10/18 11:00:53;;;;;;;84.87;24.10;;;;;;;;;;5086748;28;20445;-95
2021/10/18 11:03:50;;;;;;;83.70;24.90;;;;;;;;;;5091237;28;20421;-96
2021/10/18 11:06:25;;;;;;;81.90;23.63;;;;;;;;;;5200526;22;20492;-96
2021/10/18 11:08:51;;;;;;;88.30;22.70;;;;;;;;;;5085137;28;20428;-96
2021/10/18 11:11:19;;;;;;;84.33;22.80;;;;;;;;;;5320223;22;20477;-96
2021/10/18 11:14:16;;;;;;;81.47;23.50;;;;;;;;;;5091918;28;20426;-96
2021/10/18 11:16:46;;;;;;;83.33;22.27;;;;;;;;;;5114775;22;20465;-95
2021/10/18 11:19:14;;;;;;;80.27;23.17;;;;;;;;;;5090052;28;20510;-96
2021/10/18 11:21:41;;;;;;;77.77;22.43;;;;;;;;;;5090460;28;20446;-96
2021/10/18 11:24:09;;;;;;;82.77;21.80;;;;;;;;;;5089921;28;21715;-95
2021/10/18 11:26:37;;;;;;;78.87;22.17;;;;;;;;;;5093365;28;20454;-96
2021/10/18 11:29:14;;;;;;;77.50;20.90;;;;;;;;;;5091230;28;20451;-96
2021/10/18 11:31:42;;;;;;;79.33;21.47;;;;;;;;;;5179421;22;20497;-95
2021/10/18 11:34:11;;;;;;;77.13;20.13;;;;;;;;;;5105352;28;20464;-96
2021/10/18 11:36:44;;;;;;;77.20;21.13;;;;;;;;;;5108258;28;20454;-96
2021/10/18 11:39:32;;;;;;;77.70;21.17;;;;;;;;;;5114161;28;20475;-95
2021/10/18 11:42:18;;;;;;;80.27;20.47;;;;;;;;;;5134106;22;20481;-96
2021/10/18 11:44:49;;;;;;;78.07;20.77;;;;;;;;;;5130872;28;20953;-96
2021/10/18 11:50:28;;;;;;;76.70;21.23;;;;;;;;;;5135679;28;20486;-96
2021/10/18 11:52:56;;;;;;;80.87;22.87;;;;;;;;;;5132641;28;20525;-96
2021/10/18 11:58:39;;;;;;;78.93;21.70;;;;;;;;;;5123169;22;20495;-96
2021/10/18 12:03:47;;;;;;;80.30;22.73;;;;;;;;;;5108159;28;20505;-95
2021/10/18 12:06:33;;;;;;;76.53;22.30;;;;;;;;;;5114515;28;20430;-96
2021/10/18 12:09:27;;;;;;;79.10;21.40;;;;;;;;;;5111547;28;20458;-96
2021/10/18 12:11:56;;;;;;;78.80;21.80;;;;;;;;;;5235936;22;20495;-96
2021/10/18 12:14:22;;;;;;;76.80;21.87;;;;;;;;;;5094361;28;20464;-96
2021/10/18 12:16:49;;;;;;;80.33;22.87;;;;;;;;;;5084954;28;20454;-95
2021/10/18 12:19:45;;;;;;;78.47;21.90;;;;;;;;;;5111965;23;20478;-96
2021/10/18 12:22:35;;;;;;;79.00;22.90;;;;;;;;;;5137887;28;20470;-96
2021/10/18 12:34:52;;;;;;;78.20;24.07;;;;;;;;;;5107942;22;21117;-96
2021/10/18 12:40:31;;;;;;;81.10;23.20;;;;;;;;;;5039670;28;20443;-94
2021/10/18 12:53:40;;;;;;;76.30;22.97;;;;;;;;;;5414720;22;20479;-95
2021/10/18 13:09:18;;;;;;;74.27;20.03;;;;;;;;;;5252289;22;20568;-96
2021/10/18 13:11:46;;;;;;;76.87;22.17;;;;;;;;;;5074954;28;20545;-96
2021/10/18 13:17:16;;;;;;;77.50;22.47;;;;;;;;;;5407080;22;20496;-95
2021/10/18 13:25:29;;;;;;;74.67;21.40;;;;;;;;;;5083538;28;20446;-93
2021/10/18 13:27:56;;;;;;;77.37;24.07;;;;;;;;;;5083476;28;20445;-94
2021/10/18 13:30:23;;;;;;;75.33;21.47;;;;;;;;;;5088264;28;20442;-96
2021/10/18 13:32:50;;;;;;;74.73;21.17;;;;;;;;;;5065011;28;20472;-95
2021/10/18 13:35:17;;;;;;;74.37;20.80;;;;;;;;;;5065236;28;20442;-94
2021/10/18 13:37:44;;;;;;;78.93;22.00;;;;;;;;;;5083165;28;20437;-95
2021/10/18 13:40:12;;;;;;;74.77;20.90;;;;;;;;;;5072335;28;20472;-94
2021/10/18 13:42:40;;;;;;;76.50;21.47;;;;;;;;;;5081381;28;20963;-93
2021/10/18 13:45:07;;;;;;;74.80;20.63;;;;;;;;;;5084197;28;20471;-94
2021/10/18 13:47:34;;;;;;;79.23;20.53;;;;;;;;;;5083042;28;20457;-94
2021/10/18 13:50:01;;;;;;;74.63;21.33;;;;;;;;;;5082287;28;20484;-95
2021/10/18 13:52:27;;;;;;;74.93;19.57;;;;;;;;;;5072472;28;20519;-94
2021/10/18 13:54:56;;;;;;;75.20;20.30;;;;;;;;;;5075175;28;20454;-96
2021/10/18 13:57:25;;;;;;;75.23;20.60;;;;;;;;;;5076821;28;20560;-94
2021/10/18 13:59:53;;;;;;;77.00;21.37;;;;;;;;;;5086774;28;20444;-94
2021/10/18 14:02:20;;;;;;;75.40;19.70;;;;;;;;;;5073604;28;20455;-93
2021/10/18 14:04:47;;;;;;;76.63;21.03;;;;;;;;;;5064153;28;20460;-92
2021/10/18 14:07:14;;;;;;;73.53;20.27;;;;;;;;;;5066975;28;20457;-93
2021/10/18 14:09:41;;;;;;;75.60;19.10;;;;;;;;;;5065332;28;20501;-93
2021/10/18 14:12:08;;;;;;;71.50;18.60;;;;;;;;;;5077098;28;20506;-93
2021/10/18 14:14:35;;;;;;;74.00;18.80;;;;;;;;;;5083210;28;20462;-93
2021/10/18 14:17:03;;;;;;;75.77;19.03;;;;;;;;;;5082067;28;20445;-96
2021/10/18 14:19:29;;;;;;;74.57;18.77;;;;;;;;;;5101090;28;20482;-93
2021/10/18 14:21:56;;;;;;;76.07;20.10;;;;;;;;;;5093762;28;20449;-94
2021/10/18 14:24:22;;;;;;;76.63;21.20;;;;;;;;;;5090362;28;20455;-93
2021/10/18 14:26:49;;;;;;;78.40;19.00;;;;;;;;;;5086007;28;20498;-93
2021/10/18 14:29:15;;;;;;;76.77;20.10;;;;;;;;;;5080595;28;20538;-94
2021/10/18 14:31:42;;;;;;;80.03;19.53;;;;;;;;;;5077447;28;20474;-94
2021/10/18 14:34:10;;;;;;;79.43;20.07;;;;;;;;;;5083408;28;20509;-94
2021/10/18 14:36:36;;;;;;;79.00;20.40;;;;;;;;;;5082937;28;20447;-94
2021/10/18 14:39:03;;;;;;;82.93;21.00;;;;;;;;;;5089241;28;20511;-93
2021/10/18 14:41:31;;;;;;;76.00;20.13;;;;;;;;;;5083187;28;20453;-93
2021/10/18 14:43:59;;;;;;;77.60;20.70;;;;;;;;;;5083803;28;20499;-92
2021/10/18 14:46:26;;;;;;;78.50;22.10;;;;;;;;;;5083188;28;20468;-93
2021/10/18 14:48:53;;;;;;;82.30;20.87;;;;;;;;;;5082768;28;20498;-93
2021/10/18 14:51:22;;;;;;;84.57;22.23;;;;;;;;;;5082275;28;20472;-92
2021/10/18 14:53:51;;;;;;;81.17;22.10;;;;;;;;;;5086795;28;20460;-95
2021/10/18 14:56:18;;;;;;;82.43;22.17;;;;;;;;;;5093884;28;20454;-94
2021/10/18 14:58:45;;;;;;;80.27;22.50;;;;;;;;;;5055888;28;20492;-95
2021/10/18 15:01:11;;;;;;;78.50;20.63;;;;;;;;;;5061993;28;20446;-92
2021/10/18 15:03:40;;;;;;;78.60;19.50;;;;;;;;;;5082108;28;20838;-91
2021/10/18 15:06:07;;;;;;;76.60;18.73;;;;;;;;;;5081245;28;20521;-91
2021/10/18 15:08:34;;;;;;;72.73;17.50;;;;;;;;;;5083977;28;20535;-93
2021/10/18 15:11:02;;;;;;;74.70;18.03;;;;;;;;;;5100611;28;20445;-93
2021/10/18 15:13:29;;;;;;;74.73;17.90;;;;;;;;;;5055566;28;20484;-93
2021/10/18 15:15:56;;;;;;;78.63;17.53;;;;;;;;;;5059357;28;20485;-92
2021/10/18 15:18:22;;;;;;;74.67;17.20;;;;;;;;;;5079789;28;20469;-92
2021/10/18 15:20:49;;;;;;;71.90;17.03;;;;;;;;;;5081999;28;20953;-92
2021/10/18 15:23:15;;;;;;;75.40;16.57;;;;;;;;;;5082452;28;20486;-93
2021/10/18 15:25:43;;;;;;;75.27;17.10;;;;;;;;;;5080805;28;20480;-93
2021/10/18 15:28:10;;;;;;;72.43;16.23;;;;;;;;;;5080641;28;20441;-93
2021/10/18 15:30:37;;;;;;;73.77;17.27;;;;;;;;;;5081601;28;20489;-92
2021/10/18 15:33:04;;;;;;;72.37;16.33;;;;;;;;;;5066110;28;20454;-92
2021/10/18 15:35:30;;;;;;;75.47;18.30;;;;;;;;;;5061983;28;20446;-93
2021/10/18 15:37:57;;;;;;;77.33;17.57;;;;;;;;;;5062629;28;20446;-93
2021/10/18 15:40:23;;;;;;;79.70;18.70;;;;;;;;;;5071823;28;20866;-94
2021/10/18 15:42:51;;;;;;;75.60;18.60;;;;;;;;;;5067279;28;20441;-93
2021/10/18 15:45:18;;;;;;;80.20;20.10;;;;;;;;;;5061309;28;20454;-92
2021/10/18 15:47:45;;;;;;;80.87;20.73;;;;;;;;;;5066621;28;20453;-92
2021/10/18 15:50:12;;;;;;;77.73;19.00;;;;;;;;;;5082169;28;20489;-93
2021/10/18 15:52:39;;;;;;;85.13;20.07;;;;;;;;;;5081713;28;20449;-93
2021/10/18 15:55:06;;;;;;;82.17;20.27;;;;;;;;;;5082755;28;20449;-91
2021/10/18 15:57:32;;;;;;;79.70;20.90;;;;;;;;;;5081801;28;20475;-93
2021/10/18 16:00:00;;;;;;;79.27;19.97;;;;;;;;;;5083919;28;20506;-92
2021/10/18 16:02:27;;;;;;;82.50;21.83;;;;;;;;;;5074892;28;20457;-92
2021/10/18 16:04:53;;;;;;;78.63;20.50;;;;;;;;;;5062574;28;20450;-91
2021/10/18 16:07:20;;;;;;;79.20;20.90;;;;;;;;;;5064494;28;21044;-92
2021/10/18 16:09:46;;;;;;;82.73;19.60;;;;;;;;;;5065597;28;20576;-92
2021/10/18 16:12:13;;;;;;;77.37;20.17;;;;;;;;;;5071946;28;20445;-92
2021/10/18 16:14:39;;;;;;;78.20;18.10;;;;;;;;;;5085457;28;20968;-94
2021/10/18 16:17:09;;;;;;;77.53;18.53;;;;;;;;;;5084389;28;20477;-94
2021/10/18 16:19:36;;;;;;;76.93;18.53;;;;;;;;;;5084562;28;20472;-93
2021/10/18 16:22:03;;;;;;;77.43;18.00;;;;;;;;;;5083395;28;20870;-93
2021/10/18 16:24:29;;;;;;;74.30;17.50;;;;;;;;;;5084108;28;20494;-93
2021/10/18 16:26:56;;;;;;;76.40;17.70;;;;;;;;;;5080512;28;20476;-93